createdAt,value
2019-03-19T00:00:49.703Z,0
2019-03-19T00:01:49.666Z,0
2019-03-19T00:02:49.645Z,0
2019-03-19T00:03:49.610Z,0
2019-03-19T00:04:49.578Z,0
2019-03-19T00:05:49.552Z,0
2019-03-19T00:06:49.518Z,0
2019-03-19T00:07:49.485Z,0
2019-03-19T00:08:49.456Z,0
2019-03-19T00:09:49.438Z,0
2019-03-19T00:10:49.398Z,0
2019-03-19T00:11:49.360Z,0
2019-03-19T00:12:49.599Z,0
2019-03-19T00:13:49.290Z,0
2019-03-19T00:14:49.255Z,0
2019-03-19T00:15:49.224Z,0
2019-03-19T00:16:49.200Z,0
2019-03-19T00:17:49.170Z,0
2019-03-19T00:18:49.128Z,0
2019-03-19T00:19:49.106Z,0
2019-03-19T00:20:49.069Z,0
2019-03-19T00:21:49.042Z,0
2019-03-19T00:22:49.004Z,0
2019-03-19T00:23:48.975Z,0
2019-03-19T00:24:48.952Z,0
2019-03-19T00:25:48.916Z,0
2019-03-19T00:26:48.903Z,0
2019-03-19T00:27:48.650Z,0
2019-03-19T00:28:48.817Z,0
2019-03-19T00:29:48.788Z,0
2019-03-19T00:30:48.514Z,0
2019-03-19T00:31:48.715Z,0
2019-03-19T00:32:48.691Z,0
2019-03-19T00:33:48.655Z,0
2019-03-19T00:34:48.628Z,0
2019-03-19T00:35:48.591Z,0
2019-03-19T00:36:48.566Z,0
2019-03-19T00:37:48.533Z,0
2019-03-19T00:38:48.550Z,0
2019-03-19T00:39:48.472Z,0
2019-03-19T00:40:48.439Z,0
2019-03-19T00:41:48.408Z,0
2019-03-19T00:42:48.378Z,0
2019-03-19T00:43:48.340Z,0
2019-03-19T00:44:48.311Z,0
2019-03-19T00:45:48.275Z,0
2019-03-19T00:46:48.241Z,0
2019-03-19T00:47:48.272Z,0
2019-03-19T00:48:48.180Z,0
2019-03-19T00:49:48.165Z,0
2019-03-19T00:50:48.119Z,0
2019-03-19T00:51:48.080Z,0
2019-03-19T00:52:48.109Z,0
2019-03-19T00:53:48.031Z,0
2019-03-19T00:54:47.987Z,0
2019-03-19T00:55:48.284Z,0
2019-03-19T00:56:47.952Z,0
2019-03-19T00:57:47.892Z,0
2019-03-19T00:58:47.860Z,0
2019-03-19T00:59:47.840Z,0
2019-03-19T01:00:47.801Z,0
2019-03-19T01:01:47.803Z,0
2019-03-19T01:02:47.743Z,0
2019-03-19T01:03:47.698Z,0
2019-03-19T01:04:47.688Z,0
2019-03-19T01:05:47.647Z,0
2019-03-19T01:06:47.628Z,0
2019-03-19T01:07:47.573Z,0
2019-03-19T01:08:47.538Z,0
2019-03-19T01:09:47.510Z,0
2019-03-19T01:10:47.472Z,0
2019-03-19T01:11:47.450Z,0
2019-03-19T01:12:47.416Z,0
2019-03-19T01:13:47.379Z,0
2019-03-19T01:14:47.346Z,0
2019-03-19T01:15:47.317Z,0
2019-03-19T01:16:47.282Z,0
2019-03-19T01:17:47.257Z,0
2019-03-19T01:18:47.222Z,0
2019-03-19T01:19:47.182Z,0
2019-03-19T01:20:47.155Z,0
2019-03-19T01:21:47.125Z,0
2019-03-19T01:22:47.094Z,0
2019-03-19T01:23:47.059Z,0
2019-03-19T01:24:47.025Z,0
2019-03-19T01:26:02.536Z,0
2019-03-19T01:26:46.960Z,0
2019-03-19T01:27:46.935Z,0
2019-03-19T01:28:46.897Z,0
2019-03-19T01:29:46.871Z,0
2019-03-19T01:30:46.830Z,0
2019-03-19T01:31:46.800Z,0
2019-03-19T01:32:46.765Z,0
2019-03-19T01:33:46.733Z,0
2019-03-19T01:34:46.702Z,0
2019-03-19T01:35:46.671Z,0
2019-03-19T01:36:46.637Z,0
2019-03-19T01:37:46.603Z,0
2019-03-19T01:38:46.582Z,0
2019-03-19T01:39:46.543Z,0
2019-03-19T01:40:46.508Z,0
2019-03-19T01:41:46.479Z,0
2019-03-19T01:42:46.459Z,0
2019-03-19T01:43:46.414Z,0
2019-03-19T01:44:46.384Z,0
2019-03-19T01:45:46.353Z,0
2019-03-19T01:46:46.312Z,0
2019-03-19T01:47:46.278Z,0
2019-03-19T01:48:46.258Z,0
2019-03-19T01:49:46.224Z,0
2019-03-19T01:50:46.199Z,0
2019-03-19T01:51:46.146Z,0
2019-03-19T01:52:46.116Z,0
2019-03-19T01:53:46.085Z,0
2019-03-19T01:54:46.064Z,0
2019-03-19T01:55:46.035Z,0
2019-03-19T01:56:45.988Z,0
2019-03-19T01:57:45.967Z,0
2019-03-19T01:58:45.923Z,0
2019-03-19T01:59:45.890Z,0
2019-03-19T02:00:45.889Z,0
2019-03-19T02:01:45.833Z,0
2019-03-19T02:02:45.801Z,0
2019-03-19T02:03:45.763Z,0
2019-03-19T02:04:45.734Z,0
2019-03-19T02:05:45.705Z,0
2019-03-19T02:06:45.658Z,0
2019-03-19T02:07:45.632Z,0
2019-03-19T02:08:45.595Z,0
2019-03-19T02:09:45.565Z,0
2019-03-19T02:10:45.307Z,0
2019-03-19T02:11:45.486Z,0
2019-03-19T02:12:45.510Z,0
2019-03-19T02:13:45.208Z,0
2019-03-19T02:14:45.409Z,0
2019-03-19T02:15:45.374Z,0
2019-03-19T02:16:45.337Z,0
2019-03-19T02:17:45.327Z,0
2019-03-19T02:18:45.287Z,0
2019-03-19T02:19:45.240Z,0
2019-03-19T02:20:45.214Z,0
2019-03-19T02:21:45.191Z,0
2019-03-19T02:22:45.148Z,0
2019-03-19T02:23:45.122Z,0
2019-03-19T02:24:45.085Z,0
2019-03-19T02:25:45.056Z,0
2019-03-19T02:26:45.020Z,0
2019-03-19T02:27:44.984Z,0
2019-03-19T02:28:44.959Z,0
2019-03-19T02:29:44.922Z,0
2019-03-19T02:30:44.899Z,0
2019-03-19T02:31:44.885Z,0
2019-03-19T02:32:44.960Z,0
2019-03-19T02:33:44.791Z,0
2019-03-19T02:34:44.841Z,0
2019-03-19T02:35:44.732Z,0
2019-03-19T02:36:44.731Z,0
2019-03-19T02:37:44.701Z,0
2019-03-19T02:38:44.395Z,0
2019-03-19T02:39:44.617Z,0
2019-03-19T02:40:44.576Z,0
2019-03-19T02:41:44.304Z,0
2019-03-19T02:42:44.513Z,0
2019-03-19T02:43:44.584Z,0
2019-03-19T02:44:44.513Z,0
2019-03-19T02:45:44.404Z,0
2019-03-19T02:46:44.367Z,0
2019-03-19T02:47:44.337Z,0
2019-03-19T02:48:44.319Z,0
2019-03-19T02:49:44.262Z,0
2019-03-19T02:50:44.243Z,0
2019-03-19T02:51:44.195Z,0
2019-03-19T02:52:44.175Z,0
2019-03-19T02:53:44.144Z,0
2019-03-19T02:54:44.094Z,0
2019-03-19T02:55:44.080Z,0
2019-03-19T02:56:43.793Z,0
2019-03-19T02:57:44.036Z,0
2019-03-19T02:58:43.980Z,0
2019-03-19T02:59:43.938Z,0
2019-03-19T03:00:43.975Z,0
2019-03-19T03:01:43.896Z,0
2019-03-19T03:02:43.851Z,0
2019-03-19T03:03:43.844Z,0
2019-03-19T03:04:43.776Z,0
2019-03-19T03:05:43.762Z,0
2019-03-19T03:06:43.739Z,0
2019-03-19T03:07:43.690Z,0
2019-03-19T03:08:43.662Z,0
2019-03-19T03:09:43.636Z,0
2019-03-19T03:10:43.585Z,0
2019-03-19T03:11:43.542Z,0
2019-03-19T03:12:43.534Z,0
2019-03-19T03:13:43.484Z,0
2019-03-19T03:14:46.099Z,0
2019-03-19T03:15:43.426Z,0
2019-03-19T03:16:43.401Z,0
2019-03-19T03:17:43.344Z,0
2019-03-19T03:18:43.319Z,0
2019-03-19T03:19:43.290Z,0
2019-03-19T03:20:43.284Z,0
2019-03-19T03:21:43.222Z,0
2019-03-19T03:22:43.254Z,0
2019-03-19T03:23:43.156Z,0
2019-03-19T03:24:43.112Z,0
2019-03-19T03:25:42.947Z,0
2019-03-19T03:26:54.088Z,0
2019-03-19T03:27:43.059Z,0
2019-03-19T03:28:43.013Z,0
2019-03-19T03:29:42.987Z,0
2019-03-19T03:30:42.952Z,0
2019-03-19T03:31:42.904Z,0
2019-03-19T03:32:42.948Z,0
2019-03-19T03:33:42.821Z,0
2019-03-19T03:34:42.841Z,0
2019-03-19T03:35:42.770Z,0
2019-03-19T03:36:42.747Z,0
2019-03-19T03:37:42.726Z,0
2019-03-19T03:38:42.655Z,0
2019-03-19T03:39:42.633Z,0
2019-03-19T03:40:42.643Z,0
2019-03-19T03:41:42.559Z,0
2019-03-19T03:42:45.585Z,0
2019-03-19T03:43:42.503Z,0
2019-03-19T03:44:42.488Z,0
2019-03-19T03:45:42.457Z,0
2019-03-19T03:46:42.405Z,0
2019-03-19T03:47:42.359Z,0
2019-03-19T03:48:42.334Z,0
2019-03-19T03:49:42.304Z,0
2019-03-19T03:50:42.263Z,0
2019-03-19T03:51:42.244Z,0
2019-03-19T03:52:42.197Z,0
2019-03-19T03:53:42.213Z,0
2019-03-19T03:54:42.153Z,0
2019-03-19T03:55:42.104Z,0
2019-03-19T03:56:42.072Z,0
2019-03-19T03:57:42.041Z,0
2019-03-19T03:58:41.998Z,0
2019-03-19T03:59:41.985Z,0
2019-03-19T04:00:41.943Z,0
2019-03-19T04:01:41.926Z,0
2019-03-19T04:02:44.571Z,0
2019-03-19T04:03:41.857Z,0
2019-03-19T04:04:41.821Z,0
2019-03-19T04:05:41.773Z,0
2019-03-19T04:06:41.735Z,0
2019-03-19T04:07:41.706Z,0
2019-03-19T04:08:41.676Z,0
2019-03-19T04:09:41.647Z,0
2019-03-19T04:10:41.598Z,0
2019-03-19T04:11:41.582Z,0
2019-03-19T04:12:41.562Z,0
2019-03-19T04:13:41.270Z,0
2019-03-19T04:14:41.479Z,0
2019-03-19T04:15:41.439Z,0
2019-03-19T04:16:41.406Z,0
2019-03-19T04:17:41.416Z,0
2019-03-19T04:18:41.358Z,0
2019-03-19T04:19:41.327Z,0
2019-03-19T04:20:41.275Z,0
2019-03-19T04:21:41.255Z,0
2019-03-19T04:22:40.986Z,0
2019-03-19T04:23:41.174Z,0
2019-03-19T04:24:41.143Z,0
2019-03-19T04:25:41.151Z,0
2019-03-19T04:26:41.103Z,0
2019-03-19T04:27:42.928Z,0
2019-03-19T04:28:41.028Z,0
2019-03-19T04:29:41.024Z,0
2019-03-19T04:30:40.947Z,0
2019-03-19T04:31:40.932Z,0
2019-03-19T04:32:40.944Z,0
2019-03-19T04:33:40.843Z,0
2019-03-19T04:34:40.813Z,0
2019-03-19T04:35:42.165Z,0
2019-03-19T04:36:40.746Z,0
2019-03-19T04:37:40.718Z,0
2019-03-19T04:38:40.688Z,0
2019-03-19T04:39:40.646Z,0
2019-03-19T04:40:40.612Z,0
2019-03-19T04:41:40.585Z,0
2019-03-19T04:42:40.551Z,0
2019-03-19T04:43:40.514Z,0
2019-03-19T04:44:40.500Z,0
2019-03-19T04:45:40.448Z,0
2019-03-19T04:46:40.404Z,0
2019-03-19T04:47:40.380Z,0
2019-03-19T04:48:40.352Z,0
2019-03-19T04:49:40.325Z,0
2019-03-19T04:50:40.282Z,0
2019-03-19T04:51:40.243Z,0
2019-03-19T04:52:40.244Z,0
2019-03-19T04:53:40.178Z,0
2019-03-19T04:54:40.157Z,0
2019-03-19T04:55:40.113Z,0
2019-03-19T04:56:40.085Z,0
2019-03-19T04:57:40.050Z,0
2019-03-19T04:58:40.013Z,0
2019-03-19T04:59:39.984Z,0
2019-03-19T05:00:39.954Z,0
2019-03-19T05:01:39.917Z,0
2019-03-19T05:02:39.935Z,4
2019-03-19T05:03:39.852Z,0
2019-03-19T05:04:39.814Z,0
2019-03-19T05:05:39.783Z,4
2019-03-19T05:06:39.759Z,4
2019-03-19T05:07:39.720Z,8
2019-03-19T05:08:39.685Z,8
2019-03-19T05:09:39.657Z,8
2019-03-19T05:10:39.652Z,8
2019-03-19T05:11:39.589Z,8
2019-03-19T05:12:39.629Z,12
2019-03-19T05:13:39.530Z,12
2019-03-19T05:14:39.493Z,16
2019-03-19T05:15:39.456Z,20
2019-03-19T05:16:39.276Z,20
2019-03-19T05:17:39.386Z,28
2019-03-19T05:18:39.351Z,32
2019-03-19T05:19:39.319Z,40
2019-03-19T05:20:39.286Z,48
2019-03-19T05:21:39.254Z,56
2019-03-19T05:22:39.225Z,68
2019-03-19T05:23:39.195Z,76
2019-03-19T05:24:39.163Z,92
2019-03-19T05:25:39.124Z,108
2019-03-19T05:26:39.103Z,124
2019-03-19T05:27:44.669Z,144
2019-03-19T05:28:39.038Z,160
2019-03-19T05:29:38.994Z,188
2019-03-19T05:30:38.971Z,212
2019-03-19T05:31:38.929Z,236
2019-03-19T05:32:38.893Z,268
2019-03-19T05:33:38.867Z,300
2019-03-19T05:34:38.839Z,332
2019-03-19T05:35:38.802Z,368
2019-03-19T05:36:38.534Z,408
2019-03-19T05:37:38.731Z,452
2019-03-19T05:38:38.706Z,492
2019-03-19T05:39:38.664Z,536
2019-03-19T05:40:38.628Z,580
2019-03-19T05:41:38.605Z,632
2019-03-19T05:42:38.569Z,684
2019-03-19T05:43:38.537Z,736
2019-03-19T05:44:38.496Z,788
2019-03-19T05:45:38.464Z,848
2019-03-19T05:46:38.434Z,904
2019-03-19T05:47:45.687Z,968
2019-03-19T05:48:38.381Z,1024
2019-03-19T05:49:38.331Z,1088
2019-03-19T05:50:38.298Z,1148
2019-03-19T05:51:38.289Z,1212
2019-03-19T05:52:38.229Z,1276
2019-03-19T05:53:38.669Z,1344
2019-03-19T05:54:39.483Z,1408
2019-03-19T05:55:38.030Z,1472
2019-03-19T05:56:38.310Z,1540
2019-03-19T05:57:48.675Z,1604
2019-03-19T05:58:38.035Z,1668
2019-03-19T05:59:39.938Z,1732
2019-03-19T06:00:37.984Z,1800
2019-03-19T06:01:37.940Z,1868
2019-03-19T06:02:37.903Z,1932
2019-03-19T06:03:37.869Z,2004
2019-03-19T06:04:37.846Z,2068
2019-03-19T06:05:37.951Z,2136
2019-03-19T06:06:37.771Z,2200
2019-03-19T06:07:37.742Z,2260
2019-03-19T06:08:37.701Z,2320
2019-03-19T06:09:37.678Z,2384
2019-03-19T06:10:37.649Z,2444
2019-03-19T06:11:37.628Z,2508
2019-03-19T06:12:37.583Z,2564
2019-03-19T06:13:37.547Z,2616
2019-03-19T06:14:37.511Z,2668
2019-03-19T06:15:37.476Z,2716
2019-03-19T06:16:37.474Z,2768
2019-03-19T06:17:37.416Z,2824
2019-03-19T06:18:42.092Z,2872
2019-03-19T06:19:37.360Z,2920
2019-03-19T06:20:37.321Z,2968
2019-03-19T06:21:37.289Z,3020
2019-03-19T06:22:37.270Z,3068
2019-03-19T06:23:37.226Z,3120
2019-03-19T06:24:37.191Z,3172
2019-03-19T06:25:37.184Z,3228
2019-03-19T06:26:37.124Z,3280
2019-03-19T06:27:37.094Z,3328
2019-03-19T06:28:37.879Z,3384
2019-03-19T06:29:37.031Z,3436
2019-03-19T06:30:36.999Z,3488
2019-03-19T06:31:36.971Z,3528
2019-03-19T06:32:36.930Z,3572
2019-03-19T06:33:36.895Z,3620
2019-03-19T06:34:36.885Z,3656
2019-03-19T06:35:36.839Z,3708
2019-03-19T06:36:36.803Z,3756
2019-03-19T06:37:36.774Z,3800
2019-03-19T06:38:36.734Z,3844
2019-03-19T06:39:36.721Z,3888
2019-03-19T06:40:36.683Z,3936
2019-03-19T06:41:36.510Z,3988
2019-03-19T06:42:36.606Z,4040
2019-03-19T06:43:36.576Z,4096
2019-03-19T06:44:36.542Z,4144
2019-03-19T06:45:36.511Z,4192
2019-03-19T06:46:37.680Z,4236
2019-03-19T06:47:36.442Z,4276
2019-03-19T06:48:36.414Z,4308
2019-03-19T06:49:36.380Z,4340
2019-03-19T06:50:46.934Z,4364
2019-03-19T06:51:36.316Z,4380
2019-03-19T06:52:36.292Z,4396
2019-03-19T06:53:36.251Z,4408
2019-03-19T06:54:36.228Z,4428
2019-03-19T06:55:36.187Z,4448
2019-03-19T06:56:36.162Z,4472
2019-03-19T06:57:46.205Z,4512
2019-03-19T06:58:36.094Z,4528
2019-03-19T06:59:36.054Z,4556
2019-03-19T07:00:36.037Z,4572
2019-03-19T07:01:36.218Z,4600
2019-03-19T07:02:35.961Z,4636
2019-03-19T07:03:36.371Z,4680
2019-03-19T07:04:35.950Z,4708
2019-03-19T07:05:35.871Z,4740
2019-03-19T07:06:36.285Z,4760
2019-03-19T07:07:35.813Z,4800
2019-03-19T07:08:35.776Z,4832
2019-03-19T07:09:35.736Z,4852
2019-03-19T07:10:35.727Z,4868
2019-03-19T07:11:35.678Z,4896
2019-03-19T07:12:35.646Z,4924
2019-03-19T07:13:35.675Z,4948
2019-03-19T07:14:35.598Z,4992
2019-03-19T07:15:35.554Z,5040
2019-03-19T07:16:35.534Z,5064
2019-03-19T07:17:35.488Z,5108
2019-03-19T07:18:36.331Z,5116
2019-03-19T07:19:35.430Z,5148
2019-03-19T07:20:35.396Z,5176
2019-03-19T07:21:35.126Z,5200
2019-03-19T07:22:35.343Z,5224
2019-03-19T07:23:35.304Z,5220
2019-03-19T07:24:35.274Z,5216
2019-03-19T07:25:35.249Z,5212
2019-03-19T07:26:35.212Z,5232
2019-03-19T07:27:35.170Z,5240
2019-03-19T07:28:35.150Z,5256
2019-03-19T07:29:35.114Z,5280
2019-03-19T07:30:35.085Z,5312
2019-03-19T07:31:38.315Z,5328
2019-03-19T07:32:35.036Z,5364
2019-03-19T07:33:34.990Z,5384
2019-03-19T07:34:34.953Z,5420
2019-03-19T07:35:34.940Z,5464
2019-03-19T07:36:34.893Z,5492
2019-03-19T07:37:34.865Z,5500
2019-03-19T07:38:38.192Z,5508
2019-03-19T07:39:34.803Z,5520
2019-03-19T07:40:34.766Z,5548
2019-03-19T07:41:34.741Z,5560
2019-03-19T07:42:34.718Z,5560
2019-03-19T07:43:34.753Z,5596
2019-03-19T07:44:34.656Z,5612
2019-03-19T07:45:34.615Z,5624
2019-03-19T07:46:34.592Z,5644
2019-03-19T07:47:34.560Z,5616
2019-03-19T07:48:34.524Z,5612
2019-03-19T07:49:34.506Z,5624
2019-03-19T07:50:34.471Z,5640
2019-03-19T07:51:34.427Z,5656
2019-03-19T07:52:34.409Z,5664
2019-03-19T07:53:34.376Z,5656
2019-03-19T07:54:34.342Z,5640
2019-03-19T07:55:34.312Z,5652
2019-03-19T07:56:34.287Z,5668
2019-03-19T07:57:36.676Z,5668
2019-03-19T07:58:50.357Z,5680
2019-03-19T07:59:34.192Z,5676
2019-03-19T08:00:37.325Z,5700
2019-03-19T08:01:34.955Z,5736
2019-03-19T08:02:34.098Z,5764
2019-03-19T08:03:34.651Z,5828
2019-03-19T08:04:33.837Z,5856
2019-03-19T08:05:40.375Z,5896
2019-03-19T08:06:35.165Z,5916
2019-03-19T08:07:33.937Z,5892
2019-03-19T08:08:33.909Z,5908
2019-03-19T08:09:34.234Z,6004
2019-03-19T08:10:33.851Z,6060
2019-03-19T08:11:33.822Z,6104
2019-03-19T08:12:36.047Z,6164
2019-03-19T08:13:33.762Z,6216
2019-03-19T08:14:33.954Z,6224
2019-03-19T08:15:33.701Z,6196
2019-03-19T08:16:34.647Z,6224
2019-03-19T08:17:33.895Z,6264
2019-03-19T08:18:36.054Z,6256
2019-03-19T08:19:33.581Z,6280
2019-03-19T08:20:33.552Z,6316
2019-03-19T08:21:33.587Z,6356
2019-03-19T08:22:33.485Z,6412
2019-03-19T08:23:33.462Z,6512
2019-03-19T08:24:33.425Z,6604
2019-03-19T08:25:33.401Z,6684
2019-03-19T08:26:33.424Z,6764
2019-03-19T08:27:33.339Z,6840
2019-03-19T08:28:33.819Z,6888
2019-03-19T08:29:34.685Z,6888
2019-03-19T08:30:33.258Z,6904
2019-03-19T08:31:33.220Z,6968
2019-03-19T08:32:33.187Z,7200
2019-03-19T08:33:33.180Z,7424
2019-03-19T08:34:33.152Z,7356
2019-03-19T08:35:33.103Z,7156
2019-03-19T08:36:33.073Z,7008
2019-03-19T08:37:33.042Z,6876
2019-03-19T08:38:33.657Z,6880
2019-03-19T08:39:32.997Z,6852
2019-03-19T08:40:32.959Z,6808
2019-03-19T08:41:32.923Z,6728
2019-03-19T08:42:32.892Z,6852
2019-03-19T08:43:32.872Z,6756
2019-03-19T08:44:35.097Z,7260
2019-03-19T08:45:32.806Z,7600
2019-03-19T08:46:32.774Z,8292
2019-03-19T08:47:32.756Z,8492
2019-03-19T08:48:32.719Z,7936
2019-03-19T08:49:32.685Z,7152
2019-03-19T08:50:32.449Z,6544
2019-03-19T08:51:35.795Z,6408
2019-03-19T08:52:33.114Z,6072
2019-03-19T08:53:32.563Z,6472
2019-03-19T08:54:32.734Z,6616
2019-03-19T08:55:32.515Z,6648
2019-03-19T08:56:32.537Z,6732
2019-03-19T08:57:32.457Z,6820
2019-03-19T08:58:32.426Z,6908
2019-03-19T08:59:32.412Z,7044
2019-03-19T09:00:32.550Z,7192
2019-03-19T09:01:32.344Z,7264
2019-03-19T09:02:32.308Z,7244
2019-03-19T09:03:32.052Z,7700
2019-03-19T09:04:32.367Z,7928
2019-03-19T09:05:32.222Z,7936
2019-03-19T09:06:32.193Z,8100
2019-03-19T09:07:32.169Z,8536
2019-03-19T09:08:32.135Z,8796
2019-03-19T09:09:32.100Z,9312
2019-03-19T09:10:32.095Z,9700
2019-03-19T09:11:32.108Z,9576
2019-03-19T09:12:32.017Z,9420
2019-03-19T09:13:31.994Z,9496
2019-03-19T09:14:31.956Z,9852
2019-03-19T09:15:31.958Z,9844
2019-03-19T09:16:31.904Z,10148
2019-03-19T09:17:32.325Z,10396
2019-03-19T09:18:31.846Z,10428
2019-03-19T09:19:31.813Z,9996
2019-03-19T09:20:31.788Z,9628
2019-03-19T09:21:31.763Z,9284
2019-03-19T09:22:36.755Z,8956
2019-03-19T09:23:33.286Z,8536
2019-03-19T09:24:31.685Z,8424
2019-03-19T09:25:31.655Z,8476
2019-03-19T09:26:31.618Z,8740
2019-03-19T09:27:31.593Z,9536
2019-03-19T09:28:31.570Z,10604
2019-03-19T09:29:32.561Z,12032
2019-03-19T09:30:31.514Z,12684
2019-03-19T09:31:31.479Z,12764
2019-03-19T09:32:31.449Z,12704
2019-03-19T09:33:31.434Z,13248
2019-03-19T09:34:31.412Z,13488
2019-03-19T09:35:33.470Z,14096
2019-03-19T09:36:31.382Z,14596
2019-03-19T09:37:31.318Z,14180
2019-03-19T09:38:31.288Z,12716
2019-03-19T09:39:31.259Z,11120
2019-03-19T09:40:31.236Z,10864
2019-03-19T09:41:31.213Z,10720
2019-03-19T09:42:31.176Z,11016
2019-03-19T09:43:31.154Z,11328
2019-03-19T09:44:31.122Z,11744
2019-03-19T09:45:31.103Z,12360
2019-03-19T09:46:31.074Z,12476
2019-03-19T09:47:31.038Z,12352
2019-03-19T09:48:33.010Z,12968
2019-03-19T09:49:30.984Z,13436
2019-03-19T09:50:30.964Z,14508
2019-03-19T09:51:30.944Z,15300
2019-03-19T09:52:31.953Z,14948
2019-03-19T09:53:30.881Z,13704
2019-03-19T09:54:32.230Z,12936
2019-03-19T09:55:30.646Z,12960
2019-03-19T09:56:30.799Z,12936
2019-03-19T09:57:30.781Z,11888
2019-03-19T09:58:30.766Z,10792
2019-03-19T09:59:34.519Z,9728
2019-03-19T10:00:30.702Z,9160
2019-03-19T10:01:30.662Z,8976
2019-03-19T10:02:30.941Z,9004
2019-03-19T10:03:30.627Z,8692
2019-03-19T10:04:30.586Z,8276
2019-03-19T10:05:30.557Z,8284
2019-03-19T10:06:30.538Z,8212
2019-03-19T10:07:30.513Z,8160
2019-03-19T10:08:30.236Z,8124
2019-03-19T10:09:30.848Z,8092
2019-03-19T10:10:30.703Z,8252
2019-03-19T10:11:30.395Z,7776
2019-03-19T10:12:30.364Z,7676
2019-03-19T10:13:30.114Z,7436
2019-03-19T10:14:30.092Z,7100
2019-03-19T10:15:30.285Z,6764
2019-03-19T10:16:30.262Z,6644
2019-03-19T10:17:30.230Z,6600
2019-03-19T10:18:29.975Z,6660
2019-03-19T10:19:30.178Z,6768
2019-03-19T10:20:30.397Z,7028
2019-03-19T10:21:30.268Z,7260
2019-03-19T10:22:30.102Z,7708
2019-03-19T10:23:29.823Z,8456
2019-03-19T10:24:30.067Z,8708
2019-03-19T10:25:29.767Z,8836
2019-03-19T10:26:29.983Z,8940
2019-03-19T10:27:29.973Z,9052
2019-03-19T10:28:29.920Z,9236
2019-03-19T10:29:40.186Z,9608
2019-03-19T10:30:29.647Z,9968
2019-03-19T10:31:29.603Z,10820
2019-03-19T10:32:29.806Z,11604
2019-03-19T10:33:29.789Z,12324
2019-03-19T10:34:29.786Z,12932
2019-03-19T10:35:29.729Z,12464
2019-03-19T10:36:29.701Z,12220
2019-03-19T10:37:29.675Z,11868
2019-03-19T10:38:29.642Z,11380
2019-03-19T10:39:29.620Z,11104
2019-03-19T10:40:29.365Z,11108
2019-03-19T10:41:29.561Z,11344
2019-03-19T10:42:29.542Z,11444
2019-03-19T10:43:29.509Z,11676
2019-03-19T10:44:29.480Z,11688
2019-03-19T10:45:29.475Z,11784
2019-03-19T10:46:29.436Z,11320
2019-03-19T10:47:29.408Z,10268
2019-03-19T10:48:29.380Z,10340
2019-03-19T10:49:29.351Z,10424
2019-03-19T10:50:29.331Z,10852
2019-03-19T10:51:29.311Z,11656
2019-03-19T10:52:29.037Z,12556
2019-03-19T10:53:29.245Z,13908
2019-03-19T10:54:29.215Z,15420
2019-03-19T10:55:28.959Z,16248
2019-03-19T10:56:29.161Z,16404
2019-03-19T10:57:28.901Z,16940
2019-03-19T10:58:29.111Z,17304
2019-03-19T10:59:29.078Z,17524
2019-03-19T11:00:29.067Z,18176
2019-03-19T11:01:29.026Z,18464
2019-03-19T11:02:28.764Z,18080
2019-03-19T11:03:28.976Z,17772
2019-03-19T11:04:28.576Z,17728
2019-03-19T11:05:28.964Z,16976
2019-03-19T11:06:28.910Z,17464
2019-03-19T11:07:28.880Z,18336
2019-03-19T11:08:28.864Z,18432
2019-03-19T11:09:28.828Z,17628
2019-03-19T11:10:30.003Z,17344
2019-03-19T11:11:28.770Z,17424
2019-03-19T11:12:28.842Z,16876
2019-03-19T11:13:28.752Z,15704
2019-03-19T11:14:29.152Z,15708
2019-03-19T11:15:28.538Z,16064
2019-03-19T11:16:28.408Z,16356
2019-03-19T11:17:30.887Z,16712
2019-03-19T11:18:28.604Z,17292
2019-03-19T11:19:28.571Z,18272
2019-03-19T11:20:28.564Z,19520
2019-03-19T11:21:28.515Z,20032
2019-03-19T11:22:29.702Z,19680
2019-03-19T11:23:28.470Z,19008
2019-03-19T11:24:28.452Z,19424
2019-03-19T11:25:28.426Z,18432
2019-03-19T11:26:28.168Z,15940
2019-03-19T11:27:27.911Z,14232
2019-03-19T11:28:28.367Z,13316
2019-03-19T11:29:28.359Z,12808
2019-03-19T11:30:28.309Z,13016
2019-03-19T11:31:28.285Z,13148
2019-03-19T11:32:28.267Z,13052
2019-03-19T11:33:28.230Z,12576
2019-03-19T11:34:28.210Z,11924
2019-03-19T11:35:28.185Z,11536
2019-03-19T11:36:28.160Z,11416
2019-03-19T11:37:28.147Z,11304
2019-03-19T11:38:28.117Z,11228
2019-03-19T11:39:28.081Z,11336
2019-03-19T11:40:30.499Z,11112
2019-03-19T11:41:28.041Z,11156
2019-03-19T11:42:28.005Z,11296
2019-03-19T11:43:27.979Z,11304
2019-03-19T11:44:27.965Z,11364
2019-03-19T11:45:27.704Z,11660
2019-03-19T11:46:27.924Z,12328
2019-03-19T11:47:27.887Z,13164
2019-03-19T11:48:27.940Z,13232
2019-03-19T11:49:27.836Z,13644
2019-03-19T11:50:29.938Z,14576
2019-03-19T11:51:29.695Z,14964
2019-03-19T11:52:31.048Z,15036
2019-03-19T11:53:29.067Z,14280
2019-03-19T11:54:28.185Z,14544
2019-03-19T11:55:27.685Z,15200
2019-03-19T11:56:29.422Z,15420
2019-03-19T11:57:28.414Z,14836
2019-03-19T11:58:27.243Z,13996
2019-03-19T11:59:28.126Z,14076
2019-03-19T12:00:27.317Z,14296
2019-03-19T12:01:27.549Z,15068
2019-03-19T12:02:33.200Z,16204
2019-03-19T12:03:27.503Z,16504
2019-03-19T12:04:27.481Z,16036
2019-03-19T12:05:27.460Z,16500
2019-03-19T12:06:27.425Z,16200
2019-03-19T12:07:27.406Z,17072
2019-03-19T12:08:27.381Z,17000
2019-03-19T12:09:27.352Z,16936
2019-03-19T12:10:27.327Z,17192
2019-03-19T12:11:27.330Z,17528
2019-03-19T12:12:27.071Z,17824
2019-03-19T12:13:27.257Z,18464
2019-03-19T12:14:27.834Z,18816
2019-03-19T12:15:26.972Z,18752
2019-03-19T12:16:27.189Z,18400
2019-03-19T12:17:27.159Z,17368
2019-03-19T12:18:27.141Z,16612
2019-03-19T12:19:27.131Z,15512
2019-03-19T12:20:28.000Z,14648
2019-03-19T12:21:27.068Z,13936
2019-03-19T12:22:26.803Z,13884
2019-03-19T12:23:27.013Z,13492
2019-03-19T12:24:26.993Z,13396
2019-03-19T12:25:26.982Z,13556
2019-03-19T12:26:26.942Z,13388
2019-03-19T12:27:28.232Z,13036
2019-03-19T12:28:26.907Z,12632
2019-03-19T12:29:27.026Z,12592
2019-03-19T12:30:31.073Z,13004
2019-03-19T12:31:26.881Z,13096
2019-03-19T12:32:26.799Z,12768
2019-03-19T12:33:26.776Z,12244
2019-03-19T12:34:26.763Z,12140
2019-03-19T12:35:26.733Z,12076
2019-03-19T12:36:26.226Z,12268
2019-03-19T12:37:26.677Z,12964
2019-03-19T12:38:26.651Z,13744
2019-03-19T12:39:26.631Z,15596
2019-03-19T12:40:36.165Z,17116
2019-03-19T12:41:26.580Z,17484
2019-03-19T12:42:26.610Z,18016
2019-03-19T12:43:26.541Z,18336
2019-03-19T12:44:26.507Z,17760
2019-03-19T12:45:26.490Z,17340
2019-03-19T12:46:26.464Z,17364
2019-03-19T12:47:26.441Z,17268
2019-03-19T12:48:26.473Z,16388
2019-03-19T12:49:26.385Z,15660
2019-03-19T12:50:26.377Z,15468
2019-03-19T12:51:26.337Z,14880
2019-03-19T12:52:26.315Z,14356
2019-03-19T12:53:26.286Z,13132
2019-03-19T12:54:26.268Z,12004
2019-03-19T12:55:26.257Z,11632
2019-03-19T12:56:26.218Z,12480
2019-03-19T12:57:26.244Z,12804
2019-03-19T12:58:26.176Z,13388
2019-03-19T12:59:27.336Z,12920
2019-03-19T13:00:38.255Z,13420
2019-03-19T13:01:28.539Z,14192
2019-03-19T13:02:26.087Z,14764
2019-03-19T13:03:26.054Z,16428
2019-03-19T13:04:26.104Z,17312
2019-03-19T13:05:27.415Z,17984
2019-03-19T13:06:25.749Z,17984
2019-03-19T13:07:25.972Z,18304
2019-03-19T13:08:27.536Z,18400
2019-03-19T13:09:25.933Z,17452
2019-03-19T13:10:25.888Z,16724
2019-03-19T13:11:25.863Z,16564
2019-03-19T13:12:25.809Z,16652
2019-03-19T13:13:26.039Z,16428
2019-03-19T13:14:25.796Z,16388
2019-03-19T13:15:26.984Z,16628
2019-03-19T13:16:25.741Z,17016
2019-03-19T13:17:25.779Z,16896
2019-03-19T13:18:25.695Z,16088
2019-03-19T13:19:25.680Z,15084
2019-03-19T13:20:25.659Z,14016
2019-03-19T13:21:25.593Z,14108
2019-03-19T13:22:25.638Z,14448
2019-03-19T13:23:26.304Z,14636
2019-03-19T13:24:25.568Z,14708
2019-03-19T13:25:25.539Z,15740
2019-03-19T13:26:25.511Z,16936
2019-03-19T13:27:27.855Z,17348
2019-03-19T13:28:25.508Z,16376
2019-03-19T13:29:25.459Z,15876
2019-03-19T13:30:25.460Z,15308
2019-03-19T13:31:25.395Z,14912
2019-03-19T13:32:25.372Z,15256
2019-03-19T13:33:25.350Z,15832
2019-03-19T13:34:25.324Z,15404
2019-03-19T13:35:26.378Z,16168
2019-03-19T13:36:27.146Z,16664
2019-03-19T13:37:27.444Z,16720
2019-03-19T13:38:25.229Z,16300
2019-03-19T13:39:25.208Z,15808
2019-03-19T13:40:25.194Z,14200
2019-03-19T13:41:25.165Z,14016
2019-03-19T13:42:25.142Z,14144
2019-03-19T13:43:25.156Z,14672